Pagrindinis puslapis
METAR-TAF:

METAR-TAF

Oro uostai :

Naftos platforma

Goeree Le, Nyderlandai

platuma: 51-55-33N, ilguma: 3-40-12E, Aukštis: 19 m

Dabartinis oras

Ataskaita buvo paskelbta 29 minutes, ne 10:25 UTC
Vėjas 28 kt iš Vakarų
Temperatūra 12°C
Drėgmė 76%
Slėgis 990 hPa
Matomumas 10 km arba daugiau

METAR: EHSC 051025Z AUTO 28028KT 9999 ///////// 12/08 Q0990 W14/H13

Laikas: 12:54 (10:54 UTC)


TAF: trūkstamas

Orai ataskaitas ir orų prognozės (METAR, TAF).

turimą stotys yra geltonos ir raudonos taškus žemėlapyje.

Perkelti pele per norėdami pamatyti stoties vardą.

Tada spustelėkite, norėdami matyti oro stebėjimo ir prognozės.

Norėdami pakeisti žemėlapį: spustelėkite ant žalios mygtukų su juodo kryžiaus žemyn,; žalią mygtuką su brūkšneliu, jei norite nutolinti; arba žalių rodyklių gretimoms žemėlapius.


METAR-TAF: